createdAt,value
2018-06-04T00:00:31.096Z,30.32
2018-06-04T00:03:07.092Z,29.41
2018-06-04T00:05:42.795Z,30.16
2018-06-04T00:08:18.475Z,29.71
2018-06-04T00:10:54.324Z,29.15
2018-06-04T00:13:30.071Z,29.48
2018-06-04T00:16:06.079Z,29.47
2018-06-04T00:18:42.563Z,29.69
2018-06-04T00:21:18.085Z,30.39
2018-06-04T00:23:54.078Z,28.99
2018-06-04T00:26:29.759Z,29.63
2018-06-04T00:29:05.558Z,29.17
2018-06-04T00:31:41.085Z,29.23
2018-06-04T00:34:17.096Z,29.86
2018-06-04T00:36:53.093Z,29.89
2018-06-04T00:39:29.990Z,29.46
2018-06-04T00:44:37.502Z,30.29
2018-06-04T00:47:13.305Z,30.16
2018-06-04T00:49:49.299Z,30.24
2018-06-04T00:52:25.700Z,29.25
2018-06-04T00:55:01.778Z,28.88
2018-06-04T00:57:37.984Z,29.57
2018-06-04T01:00:15.038Z,30.44
2018-06-04T01:02:52.104Z,30.43
2018-06-04T01:05:29.119Z,30.29
2018-06-04T01:08:05.090Z,29.68
2018-06-04T01:11:34.002Z,29.62
2018-06-04T01:14:10.062Z,30.64
2018-06-04T01:16:45.878Z,30.53
2018-06-04T01:19:21.507Z,29.93
2018-06-04T01:21:58.361Z,31.14
2018-06-04T01:24:34.091Z,29.50
2018-06-04T01:27:09.993Z,29.87
2018-06-04T01:29:46.663Z,29.55
2018-06-04T01:32:22.988Z,30.49
2018-06-04T01:34:59.084Z,30.41
2018-06-04T01:37:34.970Z,30.37
2018-06-04T01:40:11.094Z,31.03
2018-06-04T01:42:46.962Z,30.94
2018-06-04T01:45:22.822Z,30.98
2018-06-04T01:47:58.397Z,31.03
2018-06-04T01:50:34.110Z,30.36
2018-06-04T01:53:10.101Z,31.12
2018-06-04T01:55:46.059Z,31.06
2018-06-04T01:58:22.983Z,31.67
2018-06-04T02:00:58.936Z,31.25
2018-06-04T02:03:35.103Z,30.69
2018-06-04T02:06:11.084Z,31.51
2018-06-04T02:08:46.780Z,31.97
2018-06-04T02:11:23.305Z,31.47
2018-06-04T02:13:59.432Z,31.24
2018-06-04T02:16:35.010Z,31.85
2018-06-04T02:19:11.066Z,31.55
2018-06-04T02:21:47.061Z,31.44
2018-06-04T02:24:23.052Z,30.99
2018-06-04T02:26:59.095Z,32.12
2018-06-04T02:29:34.982Z,32.28
2018-06-04T02:32:11.094Z,31.29
2018-06-04T02:34:47.080Z,31.46
2018-06-04T02:37:23.091Z,31.92
2018-06-04T02:40:00.347Z,32.05
2018-06-04T02:42:36.241Z,31.36
2018-06-04T02:45:12.133Z,32.18
2018-06-04T02:47:47.540Z,32.77
2018-06-04T02:50:23.344Z,31.54
2018-06-04T02:52:59.239Z,31.96
2018-06-04T02:55:35.334Z,32.95
2018-06-04T02:58:12.274Z,32.20
2018-06-04T03:00:48.238Z,32.37
2018-06-04T03:03:24.263Z,32.68
2018-06-04T03:05:59.983Z,32.53
2018-06-04T03:08:38.505Z,33.38
2018-06-04T03:11:14.089Z,33.36
2018-06-04T03:13:49.644Z,33.20
2018-06-04T03:16:25.423Z,33.05
2018-06-04T03:19:01.061Z,33.25
2018-06-04T03:21:36.528Z,33.51
2018-06-04T03:24:12.115Z,33.63
2018-06-04T03:26:48.089Z,33.29
2018-06-04T03:29:23.750Z,33.33
2018-06-04T03:31:59.215Z,33.51
2018-06-04T03:34:34.793Z,34.13
2018-06-04T03:37:10.311Z,34.30
2018-06-04T03:39:45.998Z,34.19
2018-06-04T03:42:21.496Z,33.86
2018-06-04T03:44:58.098Z,33.72
2018-06-04T03:47:33.734Z,33.42
2018-06-04T03:50:09.287Z,33.95
2018-06-04T03:52:45.094Z,33.66
2018-06-04T03:55:20.542Z,34.18
2018-06-04T03:57:56.085Z,33.28
2018-06-04T04:00:31.560Z,34.49
2018-06-04T04:03:05.219Z,33.58
2018-06-04T04:05:40.781Z,33.71
2018-06-04T04:08:16.356Z,33.95
2018-06-04T04:10:52.101Z,33.35
2018-06-04T04:13:27.847Z,33.64
2018-06-04T04:16:03.402Z,33.87
2018-06-04T04:18:39.216Z,34.47
2018-06-04T04:21:14.922Z,34.66
2018-06-04T04:23:50.313Z,34.64
2018-06-04T04:26:26.799Z,34.31
2018-06-04T04:29:02.336Z,34.16
2018-06-04T04:31:38.030Z,34.29
2018-06-04T04:34:13.564Z,34.29
2018-06-04T04:36:49.099Z,34.44
2018-06-04T04:39:24.426Z,33.89
2018-06-04T04:42:00.090Z,34.20
2018-06-04T04:44:35.765Z,34.38
2018-06-04T04:47:11.322Z,35.09
2018-06-04T04:49:45.015Z,35.29
2018-06-04T04:52:20.526Z,36.69
2018-06-04T04:54:56.095Z,36.17
2018-06-04T04:57:31.507Z,35.39
2018-06-04T05:00:07.075Z,35.77
2018-06-04T05:02:42.753Z,36.67
2018-06-04T05:05:19.023Z,37.36
2018-06-04T05:07:54.659Z,37.19
2018-06-04T05:10:30.095Z,36.74
2018-06-04T05:13:05.745Z,37.41
2018-06-04T05:15:41.292Z,36.67
2018-06-04T05:18:17.076Z,36.54
2018-06-04T05:20:52.529Z,36.11
2018-06-04T05:23:29.123Z,36.83
2018-06-04T05:26:04.658Z,37.80
2018-06-04T05:31:39.274Z,36.79
2018-06-04T05:34:15.006Z,37.83
2018-06-04T05:36:51.098Z,37.19
2018-06-04T05:39:27.092Z,37.13
2018-06-04T05:42:03.103Z,37.09
2018-06-04T05:44:39.933Z,36.45
2018-06-04T05:47:17.090Z,37.62
2018-06-04T05:49:52.866Z,38.18
2018-06-04T05:52:29.810Z,36.87
2018-06-04T05:55:06.772Z,38.08
2018-06-04T05:57:42.295Z,37.43
2018-06-04T06:00:17.816Z,37.47
2018-06-04T06:02:53.405Z,37.80
2018-06-04T06:05:29.108Z,38.16
2018-06-04T06:08:05.070Z,38.03
2018-06-04T06:10:41.770Z,37.44
2018-06-04T06:13:17.444Z,37.83
2018-06-04T06:15:53.105Z,37.77
2018-06-04T06:18:28.931Z,37.24
2018-06-04T06:21:05.989Z,38.03
2018-06-04T06:23:41.841Z,37.43
2018-06-04T06:26:17.513Z,37.11
2018-06-04T06:28:53.118Z,38.19
2018-06-04T06:31:28.849Z,38.39
2018-06-04T06:34:05.091Z,37.83
2018-06-04T06:36:42.091Z,37.24
2018-06-04T06:39:18.098Z,37.14
2018-06-04T06:41:53.862Z,37.39
2018-06-04T06:44:29.564Z,37.68
2018-06-04T06:47:05.110Z,37.69
2018-06-04T06:49:40.858Z,37.87
2018-06-04T06:52:16.769Z,38.29
2018-06-04T06:54:52.410Z,38.34
2018-06-04T06:57:28.104Z,38.96
2018-06-04T07:00:04.770Z,38.00
2018-06-04T07:02:41.286Z,38.43
2018-06-04T07:05:17.987Z,38.77
2018-06-04T07:07:54.334Z,39.71
2018-06-04T07:10:32.124Z,39.04
2018-06-04T07:13:09.892Z,39.45
2018-06-04T07:15:48.938Z,38.30
2018-06-04T07:18:27.294Z,38.48
2018-06-04T07:21:04.526Z,38.71
2018-06-04T07:23:41.323Z,39.40
2018-06-04T07:26:16.409Z,39.17
2018-06-04T07:28:53.725Z,39.97
2018-06-04T07:31:30.322Z,39.57
2018-06-04T07:34:05.436Z,38.76
2018-06-04T07:36:43.237Z,39.68
2018-06-04T07:39:21.341Z,40.10
2018-06-04T07:41:58.348Z,39.63
2018-06-04T07:44:36.061Z,39.70
2018-06-04T07:47:13.340Z,39.85
2018-06-04T07:49:51.122Z,39.73
2018-06-04T07:52:28.929Z,40.36
2018-06-04T07:55:04.083Z,40.35
2018-06-04T07:57:42.346Z,39.75
2018-06-04T08:00:20.565Z,40.48
2018-06-04T08:02:57.832Z,40.89
2018-06-04T08:05:35.844Z,40.31
2018-06-04T08:08:13.296Z,40.79
2018-06-04T08:10:50.265Z,40.06
2018-06-04T08:13:27.342Z,39.73
2018-06-04T08:16:04.550Z,40.98
2018-06-04T08:18:41.086Z,40.41
2018-06-04T08:21:20.049Z,41.41
2018-06-04T08:23:56.878Z,41.43
2018-06-04T08:26:33.426Z,41.14
2018-06-04T08:29:09.989Z,40.28
2018-06-04T08:31:47.051Z,41.36
2018-06-04T08:34:24.103Z,40.31
2018-06-04T08:37:00.714Z,40.77
2018-06-04T08:39:37.894Z,41.35
2018-06-04T08:42:15.053Z,40.30
2018-06-04T08:44:52.281Z,41.29
2018-06-04T08:47:29.226Z,40.49
2018-06-04T08:50:06.065Z,40.52
2018-06-04T08:52:43.530Z,40.91
2018-06-04T08:55:20.085Z,40.55
2018-06-04T08:57:57.089Z,41.36
2018-06-04T09:00:34.090Z,42.10
2018-06-04T09:03:10.503Z,41.67
2018-06-04T09:05:47.844Z,41.26
2018-06-04T09:08:24.886Z,41.00
2018-06-04T09:11:01.117Z,41.79
2018-06-04T09:13:38.992Z,41.12
2018-06-04T09:16:15.354Z,40.82
2018-06-04T09:18:52.273Z,41.48
2018-06-04T09:21:29.811Z,41.93
2018-06-04T09:24:08.679Z,41.55
2018-06-04T09:26:45.770Z,41.80
2018-06-04T09:29:22.494Z,42.19
2018-06-04T09:31:59.305Z,41.49
2018-06-04T09:34:34.456Z,41.86
2018-06-04T09:37:11.474Z,42.65
2018-06-04T09:39:48.267Z,41.93
2018-06-04T09:42:24.739Z,41.25
2018-06-04T09:45:02.070Z,41.86
2018-06-04T09:47:39.521Z,42.25
2018-06-04T09:50:17.074Z,41.63
2018-06-04T09:52:53.653Z,41.89
2018-06-04T09:55:30.474Z,42.01
2018-06-04T09:58:07.443Z,41.29
2018-06-04T10:00:44.320Z,42.35
2018-06-04T10:03:21.092Z,41.39
2018-06-04T10:05:58.318Z,42.06
2018-06-04T10:08:34.613Z,41.65
2018-06-04T10:11:11.516Z,42.06
2018-06-04T10:13:48.293Z,41.67
2018-06-04T10:16:26.282Z,42.79
2018-06-04T10:19:03.316Z,42.51
2018-06-04T10:21:40.461Z,42.10
2018-06-04T10:24:17.282Z,42.05
2018-06-04T10:26:54.099Z,42.42
2018-06-04T10:29:30.437Z,42.27
2018-06-04T10:32:07.865Z,41.96
2018-06-04T10:34:44.326Z,42.80
2018-06-04T10:37:19.661Z,42.16
2018-06-04T10:39:56.277Z,42.15
2018-06-04T10:42:31.006Z,41.89
2018-06-04T10:45:08.095Z,41.61
2018-06-04T10:47:45.292Z,41.54
2018-06-04T10:50:22.482Z,41.61
2018-06-04T10:52:59.391Z,41.70
2018-06-04T10:55:36.104Z,42.01
2018-06-04T10:58:13.091Z,41.87
2018-06-04T11:00:50.493Z,42.90
2018-06-04T11:03:31.784Z,42.83
2018-06-04T11:06:08.755Z,42.31
2018-06-04T11:08:45.145Z,42.46
2018-06-04T11:11:23.064Z,42.27
2018-06-04T11:14:00.490Z,42.93
2018-06-04T11:16:37.532Z,42.84
2018-06-04T11:19:14.086Z,42.24
2018-06-04T11:21:51.768Z,43.10
2018-06-04T11:24:29.091Z,42.49
2018-06-04T11:27:05.518Z,42.78
2018-06-04T11:29:42.845Z,42.36
2018-06-04T11:32:20.742Z,42.14
2018-06-04T11:34:58.275Z,42.63
2018-06-04T11:37:35.822Z,42.29
2018-06-04T11:40:12.286Z,42.15
2018-06-04T11:42:49.521Z,42.28
2018-06-04T11:45:26.763Z,43.12
2018-06-04T11:48:03.978Z,43.02
2018-06-04T11:50:41.097Z,42.50
2018-06-04T11:53:17.274Z,42.12
2018-06-04T11:55:54.109Z,43.15
2018-06-04T11:58:32.095Z,42.36
2018-06-04T12:01:09.278Z,42.58
2018-06-04T12:03:44.460Z,42.93
2018-06-04T12:06:21.082Z,43.09
2018-06-04T12:08:57.933Z,42.90
2018-06-04T12:11:34.503Z,43.13
2018-06-04T12:14:12.244Z,43.47
2018-06-04T12:16:49.088Z,42.95
2018-06-04T12:19:25.299Z,43.17
2018-06-04T12:22:02.310Z,43.73
2018-06-04T12:24:39.389Z,43.10
2018-06-04T12:27:15.003Z,43.55
2018-06-04T12:29:52.469Z,43.23
2018-06-04T12:32:29.110Z,43.15
2018-06-04T12:35:06.271Z,42.91
2018-06-04T12:37:41.421Z,43.88
2018-06-04T12:40:18.269Z,43.28
2018-06-04T12:42:56.073Z,43.76
2018-06-04T12:45:32.534Z,43.20
2018-06-04T12:48:09.592Z,43.26
2018-06-04T12:50:47.094Z,43.56
2018-06-04T12:53:24.823Z,43.83
2018-06-04T12:56:02.091Z,43.09
2018-06-04T12:58:38.844Z,43.88
2018-06-04T13:01:15.801Z,43.29
2018-06-04T13:03:53.103Z,43.65
2018-06-04T13:06:30.508Z,43.17
2018-06-04T13:09:07.850Z,43.80
2018-06-04T13:11:44.574Z,43.67
2018-06-04T13:14:21.578Z,43.84
2018-06-04T13:16:58.354Z,43.95
2018-06-04T13:19:33.685Z,43.72
2018-06-04T13:22:11.074Z,43.35
2018-06-04T13:24:48.208Z,42.88
2018-06-04T13:27:25.257Z,43.23
2018-06-04T13:30:02.094Z,44.05
2018-06-04T13:32:38.777Z,44.12
2018-06-04T13:35:15.775Z,43.79
2018-06-04T13:37:52.471Z,43.79
2018-06-04T13:40:27.838Z,43.95
2018-06-04T13:43:05.087Z,43.65
2018-06-04T13:45:46.831Z,44.24
2018-06-04T13:48:24.285Z,43.32
2018-06-04T13:51:01.843Z,44.26
2018-06-04T13:53:39.285Z,44.14
2018-06-04T13:56:17.792Z,44.12
2018-06-04T13:58:54.270Z,44.28
2018-06-04T14:01:31.437Z,44.46
2018-06-04T14:04:08.072Z,44.05
2018-06-04T14:06:46.107Z,44.58
2018-06-04T14:09:23.080Z,44.53
2018-06-04T14:11:59.877Z,43.64
2018-06-04T14:14:36.278Z,44.33
2018-06-04T14:17:13.293Z,44.58
2018-06-04T14:19:50.072Z,43.96
2018-06-04T14:22:27.088Z,44.58
2018-06-04T14:25:05.398Z,43.92
2018-06-04T14:27:40.207Z,43.83
2018-06-04T14:30:17.085Z,44.14
2018-06-04T14:32:54.649Z,44.15
2018-06-04T14:35:31.088Z,44.96
2018-06-04T14:38:08.089Z,44.59
2018-06-04T14:40:45.009Z,44.85
2018-06-04T14:43:21.756Z,44.11
2018-06-04T14:45:58.456Z,45.10
2018-06-04T14:48:34.982Z,44.66
2018-06-04T14:51:11.794Z,44.17
2018-06-04T14:53:48.535Z,44.68
2018-06-04T14:56:25.075Z,44.79
2018-06-04T14:59:03.092Z,44.32
2018-06-04T15:01:40.083Z,45.12
2018-06-04T15:04:16.808Z,45.16
2018-06-04T15:06:54.070Z,44.50
2018-06-04T15:09:31.081Z,44.23
2018-06-04T15:12:07.775Z,44.90
2018-06-04T15:14:45.069Z,44.80
2018-06-04T15:17:21.938Z,45.14
2018-06-04T15:19:59.107Z,44.94
2018-06-04T15:22:35.800Z,45.01
2018-06-04T15:25:13.088Z,44.97
2018-06-04T15:27:50.075Z,44.81
2018-06-04T15:30:26.297Z,45.17
2018-06-04T15:33:03.798Z,44.56
2018-06-04T15:35:40.093Z,44.87
2018-06-04T15:38:16.486Z,44.15
2018-06-04T15:40:54.112Z,44.75
2018-06-04T15:43:31.072Z,45.01
2018-06-04T15:48:54.406Z,44.70
2018-06-04T15:51:32.092Z,44.23
2018-06-04T15:54:11.215Z,44.32
2018-06-04T15:56:48.326Z,43.92
2018-06-04T15:59:26.104Z,44.23
2018-06-04T16:02:03.438Z,43.94
2018-06-04T16:04:40.480Z,44.00
2018-06-04T16:07:17.090Z,43.61
2018-06-04T16:09:54.094Z,44.76
2018-06-04T16:12:31.079Z,43.74
2018-06-04T16:15:09.082Z,43.69
2018-06-04T16:17:46.087Z,43.72
2018-06-04T16:20:23.658Z,43.56
2018-06-04T16:22:58.729Z,44.50
2018-06-04T16:25:35.267Z,43.96
2018-06-04T16:28:10.812Z,43.92
2018-06-04T16:30:46.303Z,43.34
2018-06-04T16:33:21.936Z,42.97
2018-06-04T16:35:57.669Z,44.11
2018-06-04T16:38:35.436Z,43.83
2018-06-04T16:41:11.872Z,43.88
2018-06-04T16:43:49.098Z,43.45
2018-06-04T16:46:25.850Z,43.87
2018-06-04T16:49:01.445Z,42.92
2018-06-04T16:51:36.661Z,43.16
2018-06-04T16:54:13.840Z,43.01
2018-06-04T16:56:49.535Z,43.85
2018-06-04T16:59:27.403Z,43.05
2018-06-04T17:02:04.999Z,43.11
2018-06-04T17:04:40.744Z,43.52
2018-06-04T17:07:16.211Z,43.35
2018-06-04T17:09:53.465Z,42.86
2018-06-04T17:12:29.069Z,42.85
2018-06-04T17:15:04.594Z,42.42
2018-06-04T17:17:40.099Z,43.90
2018-06-04T17:20:15.666Z,42.77
2018-06-04T17:22:51.328Z,43.33
2018-06-04T17:25:27.122Z,43.64
2018-06-04T17:28:02.750Z,43.21
2018-06-04T17:30:38.334Z,43.26
2018-06-04T17:33:12.007Z,43.53
2018-06-04T17:36:40.849Z,42.94
2018-06-04T17:39:16.517Z,43.12
2018-06-04T17:41:52.066Z,43.21
2018-06-04T17:44:27.769Z,42.83
2018-06-04T17:47:04.852Z,43.09
2018-06-04T17:49:41.137Z,43.57
2018-06-04T17:52:17.262Z,43.26
2018-06-04T17:56:42.425Z,42.51
2018-06-04T17:59:18.096Z,41.96
2018-06-04T18:01:53.909Z,42.50
2018-06-04T18:04:29.474Z,43.30
2018-06-04T18:07:05.505Z,42.88
2018-06-04T18:09:41.097Z,42.01
2018-06-04T18:12:17.819Z,43.08
2018-06-04T18:14:53.444Z,42.06
2018-06-04T18:17:29.097Z,42.09
2018-06-04T18:20:04.936Z,41.98
2018-06-04T18:22:40.902Z,42.47
2018-06-04T18:25:16.756Z,42.68
2018-06-04T18:27:52.427Z,42.32
2018-06-04T18:30:26.006Z,42.18
2018-06-04T18:33:02.497Z,42.51
2018-06-04T18:35:38.098Z,41.79
2018-06-04T18:38:14.967Z,41.27
2018-06-04T18:40:51.131Z,41.22
2018-06-04T18:43:27.116Z,41.27
2018-06-04T18:46:03.286Z,41.16
2018-06-04T18:48:39.287Z,40.90
2018-06-04T18:51:15.451Z,40.47
2018-06-04T18:53:51.333Z,41.79
2018-06-04T18:56:27.880Z,41.28
2018-06-04T18:59:03.902Z,41.04
2018-06-04T19:01:40.092Z,40.65
2018-06-04T19:04:16.214Z,41.10
2018-06-04T19:06:52.218Z,40.94
2018-06-04T19:09:28.209Z,41.08
2018-06-04T19:12:04.289Z,40.46
2018-06-04T19:14:40.553Z,40.47
2018-06-04T19:17:17.211Z,39.87
2018-06-04T19:19:54.267Z,40.23
2018-06-04T19:22:30.430Z,41.50
2018-06-04T19:25:06.433Z,39.11
2018-06-04T19:27:44.274Z,38.65
2018-06-04T19:30:20.082Z,38.86
2018-06-04T19:32:56.291Z,38.65
2018-06-04T19:35:32.296Z,38.79
2018-06-04T19:38:06.231Z,38.25
2018-06-04T19:40:42.706Z,38.31
2018-06-04T19:43:19.210Z,38.20
2018-06-04T19:45:55.329Z,38.02
2018-06-04T19:48:31.264Z,38.27
2018-06-04T19:51:07.384Z,37.43
2018-06-04T19:53:43.343Z,37.29
2018-06-04T19:56:19.563Z,37.04
2018-06-04T19:58:56.665Z,37.26
2018-06-04T20:01:32.644Z,36.91
2018-06-04T20:04:08.792Z,36.38
2018-06-04T20:06:45.100Z,37.10
2018-06-04T20:09:21.293Z,36.46
2018-06-04T20:11:57.846Z,36.65
2018-06-04T20:14:33.857Z,36.77
2018-06-04T20:17:10.131Z,36.15
2018-06-04T20:19:46.207Z,36.01
2018-06-04T20:22:22.093Z,35.61
2018-06-04T20:24:58.099Z,36.01
2018-06-04T20:27:34.118Z,35.72
2018-06-04T20:30:11.430Z,35.64
2018-06-04T20:32:47.447Z,35.90
2018-06-04T20:35:24.976Z,35.77
2018-06-04T20:38:00.854Z,35.79
2018-06-04T20:40:36.429Z,35.16
2018-06-04T20:43:12.456Z,34.88
2018-06-04T20:45:48.087Z,35.39
2018-06-04T20:48:23.905Z,35.84
2018-06-04T20:51:00.481Z,34.40
2018-06-04T20:53:36.437Z,35.09
2018-06-04T20:56:12.091Z,33.79
2018-06-04T20:58:47.951Z,33.52
2018-06-04T21:01:23.802Z,34.65
2018-06-04T21:04:00.294Z,34.40
2018-06-04T21:06:36.331Z,34.58
2018-06-04T21:09:13.421Z,34.62
2018-06-04T21:11:49.962Z,33.38
2018-06-04T21:14:26.104Z,34.41
2018-06-04T21:17:03.315Z,33.70
2018-06-04T21:19:39.434Z,33.07
2018-06-04T21:22:16.106Z,33.49
2018-06-04T21:24:53.291Z,32.13
2018-06-04T21:27:30.091Z,31.89
2018-06-04T21:30:10.261Z,32.38
2018-06-04T21:32:49.299Z,32.19
2018-06-04T21:35:28.834Z,31.79
2018-06-04T21:38:06.674Z,32.40
2018-06-04T21:40:44.517Z,31.44
2018-06-04T21:43:26.265Z,31.20
2018-06-04T21:46:01.575Z,30.70
2018-06-04T21:48:38.317Z,31.03
2018-06-04T21:51:14.069Z,31.31
2018-06-04T21:53:50.090Z,30.22
2018-06-04T21:56:25.836Z,30.52
2018-06-04T21:59:01.406Z,30.04
2018-06-04T22:01:37.066Z,31.07
2018-06-04T22:04:15.891Z,29.88
2018-06-04T22:06:51.412Z,30.16
2018-06-04T22:09:27.534Z,30.07
2018-06-04T22:12:04.178Z,29.73
2018-06-04T22:14:40.211Z,29.34
2018-06-04T22:17:17.081Z,29.68
2018-06-04T22:19:53.092Z,29.89
2018-06-04T22:22:30.087Z,30.22
2018-06-04T22:25:06.209Z,29.25
2018-06-04T22:27:42.108Z,28.85
2018-06-04T22:30:18.233Z,29.87
2018-06-04T22:32:54.272Z,29.70
2018-06-04T22:35:30.423Z,28.84
2018-06-04T22:38:11.449Z,29.08
2018-06-04T22:40:47.553Z,29.01
2018-06-04T22:43:23.112Z,28.98
2018-06-04T22:45:59.210Z,29.32
2018-06-04T22:48:35.303Z,29.38
2018-06-04T22:51:11.662Z,28.62
2018-06-04T22:53:47.954Z,29.12
2018-06-04T22:56:24.772Z,28.96
2018-06-04T22:59:00.826Z,28.00
2018-06-04T23:01:36.841Z,28.49
2018-06-04T23:04:12.882Z,28.50
2018-06-04T23:06:49.205Z,28.49
2018-06-04T23:09:25.209Z,27.90
2018-06-04T23:12:01.281Z,28.46
2018-06-04T23:14:37.210Z,28.84
2018-06-04T23:17:15.112Z,28.66
2018-06-04T23:19:51.406Z,28.07
2018-06-04T23:22:28.725Z,28.01
2018-06-04T23:25:05.210Z,28.41
2018-06-04T23:27:41.282Z,27.56
2018-06-04T23:30:17.826Z,27.93
2018-06-04T23:32:53.786Z,27.25
2018-06-04T23:35:30.281Z,27.01
2018-06-04T23:38:06.331Z,27.81
2018-06-04T23:40:44.423Z,27.56
2018-06-04T23:43:20.276Z,28.12
2018-06-04T23:45:56.210Z,27.28
2018-06-04T23:48:32.086Z,27.43
2018-06-04T23:51:08.266Z,27.23
2018-06-04T23:53:44.319Z,28.10
2018-06-04T23:56:20.514Z,27.14
2018-06-04T23:58:56.861Z,26.80
